sensor_id;sensor_type;location;lat;lon;timestamp;P1;durP1;ratioP1;P2;durP2;ratioP2
24857;SDS011;12935;50.782;6.074;2023-02-15T00:00:02;27.30;;;7.30;;
24857;SDS011;12935;50.782;6.074;2023-02-15T00:02:33;19.27;;;7.22;;
24857;SDS011;12935;50.782;6.074;2023-02-15T00:04:58;27.40;;;5.73;;
24857;SDS011;12935;50.782;6.074;2023-02-15T00:07:23;24.93;;;4.50;;
24857;SDS011;12935;50.782;6.074;2023-02-15T00:09:49;19.03;;;3.70;;
24857;SDS011;12935;50.782;6.074;2023-02-15T00:12:14;12.33;;;3.33;;
24857;SDS011;12935;50.782;6.074;2023-02-15T00:14:40;21.95;;;4.78;;
24857;SDS011;12935;50.782;6.074;2023-02-15T00:17:07;25.60;;;5.53;;
24857;SDS011;12935;50.782;6.074;2023-02-15T00:19:32;35.30;;;8.77;;
24857;SDS011;12935;50.782;6.074;2023-02-15T00:21:57;16.40;;;3.47;;
24857;SDS011;12935;50.782;6.074;2023-02-15T00:24:24;23.23;;;5.70;;
24857;SDS011;12935;50.782;6.074;2023-02-15T00:26:49;16.85;;;3.53;;
24857;SDS011;12935;50.782;6.074;2023-02-15T00:29:15;17.93;;;3.73;;
24857;SDS011;12935;50.782;6.074;2023-02-15T00:31:42;16.02;;;4.63;;
24857;SDS011;12935;50.782;6.074;2023-02-15T00:34:10;20.00;;;4.17;;
24857;SDS011;12935;50.782;6.074;2023-02-15T00:36:36;14.15;;;4.10;;
24857;SDS011;12935;50.782;6.074;2023-02-15T00:39:02;22.57;;;3.67;;
24857;SDS011;12935;50.782;6.074;2023-02-15T00:41:29;49.95;;;5.97;;
24857;SDS011;12935;50.782;6.074;2023-02-15T00:43:55;14.70;;;4.33;;
24857;SDS011;12935;50.782;6.074;2023-02-15T00:46:20;18.27;;;3.13;;
24857;SDS011;12935;50.782;6.074;2023-02-15T00:48:46;21.13;;;3.83;;
24857;SDS011;12935;50.782;6.074;2023-02-15T00:51:11;25.90;;;5.10;;
24857;SDS011;12935;50.782;6.074;2023-02-15T00:53:36;19.53;;;3.73;;
24857;SDS011;12935;50.782;6.074;2023-02-15T00:56:01;31.73;;;6.93;;
24857;SDS011;12935;50.782;6.074;2023-02-15T00:58:27;20.50;;;3.80;;
24857;SDS011;12935;50.782;6.074;2023-02-15T01:00:52;16.70;;;5.60;;
24857;SDS011;12935;50.782;6.074;2023-02-15T01:03:18;15.13;;;3.90;;
24857;SDS011;12935;50.782;6.074;2023-02-15T01:05:45;21.52;;;4.32;;
24857;SDS011;12935;50.782;6.074;2023-02-15T01:08:12;28.67;;;5.30;;
24857;SDS011;12935;50.782;6.074;2023-02-15T01:10:37;32.20;;;5.80;;
24857;SDS011;12935;50.782;6.074;2023-02-15T01:13:03;24.13;;;5.53;;
24857;SDS011;12935;50.782;6.074;2023-02-15T01:15:28;22.73;;;4.30;;
24857;SDS011;12935;50.782;6.074;2023-02-15T01:17:53;24.27;;;5.97;;
24857;SDS011;12935;50.782;6.074;2023-02-15T01:20:23;15.20;;;4.77;;
24857;SDS011;12935;50.782;6.074;2023-02-15T01:22:51;17.10;;;3.55;;
24857;SDS011;12935;50.782;6.074;2023-02-15T01:25:17;23.55;;;3.90;;
24857;SDS011;12935;50.782;6.074;2023-02-15T01:27:42;24.07;;;5.30;;
24857;SDS011;12935;50.782;6.074;2023-02-15T01:30:08;36.20;;;6.17;;
24857;SDS011;12935;50.782;6.074;2023-02-15T01:32:33;18.77;;;4.80;;
24857;SDS011;12935;50.782;6.074;2023-02-15T01:34:59;13.73;;;2.77;;
24857;SDS011;12935;50.782;6.074;2023-02-15T01:37:24;28.97;;;6.47;;
24857;SDS011;12935;50.782;6.074;2023-02-15T01:39:49;26.40;;;4.23;;
24857;SDS011;12935;50.782;6.074;2023-02-15T01:42:20;24.43;;;4.70;;
24857;SDS011;12935;50.782;6.074;2023-02-15T01:44:50;25.25;;;4.50;;
24857;SDS011;12935;50.782;6.074;2023-02-15T01:49:50;19.50;;;4.32;;
24857;SDS011;12935;50.782;6.074;2023-02-15T01:52:24;27.05;;;7.05;;
24857;SDS011;12935;50.782;6.074;2023-02-15T01:54:50;22.33;;;4.13;;
24857;SDS011;12935;50.782;6.074;2023-02-15T01:57:16;27.40;;;4.93;;
24857;SDS011;12935;50.782;6.074;2023-02-15T01:59:47;20.52;;;4.45;;
24857;SDS011;12935;50.782;6.074;2023-02-15T02:02:18;32.38;;;5.95;;
24857;SDS011;12935;50.782;6.074;2023-02-15T02:04:52;26.73;;;4.60;;
24857;SDS011;12935;50.782;6.074;2023-02-15T02:07:22;24.70;;;4.18;;
24857;SDS011;12935;50.782;6.074;2023-02-15T02:09:51;38.53;;;6.55;;
24857;SDS011;12935;50.782;6.074;2023-02-15T02:12:17;34.23;;;7.23;;
24857;SDS011;12935;50.782;6.074;2023-02-15T02:14:44;22.52;;;4.90;;
24857;SDS011;12935;50.782;6.074;2023-02-15T02:25:54;23.02;;;5.80;;
24857;SDS011;12935;50.782;6.074;2023-02-15T02:31:22;36.13;;;8.27;;
24857;SDS011;12935;50.782;6.074;2023-02-15T02:33:59;16.95;;;3.53;;
24857;SDS011;12935;50.782;6.074;2023-02-15T02:36:44;21.52;;;4.93;;
24857;SDS011;12935;50.782;6.074;2023-02-15T02:45:15;28.38;;;6.25;;
24857;SDS011;12935;50.782;6.074;2023-02-15T02:47:49;38.33;;;5.25;;
24857;SDS011;12935;50.782;6.074;2023-02-15T02:50:22;32.53;;;5.65;;
24857;SDS011;12935;50.782;6.074;2023-02-15T02:52:53;21.67;;;4.70;;
24857;SDS011;12935;50.782;6.074;2023-02-15T02:57:57;21.15;;;5.25;;
24857;SDS011;12935;50.782;6.074;2023-02-15T03:00:24;23.55;;;6.68;;
24857;SDS011;12935;50.782;6.074;2023-02-15T03:02:54;13.50;;;3.45;;
24857;SDS011;12935;50.782;6.074;2023-02-15T03:05:30;20.27;;;4.07;;
24857;SDS011;12935;50.782;6.074;2023-02-15T03:07:59;16.15;;;3.40;;
24857;SDS011;12935;50.782;6.074;2023-02-15T03:10:26;27.83;;;9.60;;
24857;SDS011;12935;50.782;6.074;2023-02-15T03:12:54;20.08;;;4.50;;
24857;SDS011;12935;50.782;6.074;2023-02-15T03:15:21;26.13;;;6.63;;
24857;SDS011;12935;50.782;6.074;2023-02-15T03:17:52;28.30;;;6.10;;
24857;SDS011;12935;50.782;6.074;2023-02-15T03:20:24;14.75;;;3.78;;
24857;SDS011;12935;50.782;6.074;2023-02-15T03:22:54;27.75;;;6.07;;
24857;SDS011;12935;50.782;6.074;2023-02-15T03:25:32;20.80;;;5.82;;
24857;SDS011;12935;50.782;6.074;2023-02-15T03:28:08;12.65;;;3.08;;
24857;SDS011;12935;50.782;6.074;2023-02-15T03:30:36;17.40;;;3.50;;
24857;SDS011;12935;50.782;6.074;2023-02-15T03:33:05;21.38;;;4.90;;
24857;SDS011;12935;50.782;6.074;2023-02-15T03:35:44;29.15;;;5.38;;
24857;SDS011;12935;50.782;6.074;2023-02-15T03:38:20;19.88;;;4.45;;
24857;SDS011;12935;50.782;6.074;2023-02-15T03:40:50;17.17;;;3.65;;
24857;SDS011;12935;50.782;6.074;2023-02-15T03:48:53;18.67;;;6.53;;
24857;SDS011;12935;50.782;6.074;2023-02-15T03:51:23;21.80;;;3.92;;
24857;SDS011;12935;50.782;6.074;2023-02-15T03:53:59;25.70;;;4.60;;
24857;SDS011;12935;50.782;6.074;2023-02-15T03:56:27;22.42;;;5.55;;
24857;SDS011;12935;50.782;6.074;2023-02-15T03:58:53;13.53;;;3.17;;
24857;SDS011;12935;50.782;6.074;2023-02-15T04:01:38;18.80;;;3.70;;
24857;SDS011;12935;50.782;6.074;2023-02-15T04:04:38;16.83;;;5.18;;
24857;SDS011;12935;50.782;6.074;2023-02-15T04:07:07;39.40;;;8.25;;
24857;SDS011;12935;50.782;6.074;2023-02-15T04:09:33;30.65;;;5.55;;
24857;SDS011;12935;50.782;6.074;2023-02-15T04:12:17;38.47;;;4.72;;
24857;SDS011;12935;50.782;6.074;2023-02-15T04:14:42;29.57;;;5.83;;
24857;SDS011;12935;50.782;6.074;2023-02-15T04:17:26;22.30;;;4.20;;
24857;SDS011;12935;50.782;6.074;2023-02-15T04:19:52;16.87;;;3.50;;
24857;SDS011;12935;50.782;6.074;2023-02-15T04:22:35;24.75;;;4.80;;
24857;SDS011;12935;50.782;6.074;2023-02-15T04:25:19;19.80;;;4.20;;
24857;SDS011;12935;50.782;6.074;2023-02-15T04:27:46;18.60;;;3.50;;
24857;SDS011;12935;50.782;6.074;2023-02-15T04:30:14;23.77;;;4.45;;
24857;SDS011;12935;50.782;6.074;2023-02-15T04:32:40;23.52;;;4.45;;
24857;SDS011;12935;50.782;6.074;2023-02-15T04:35:06;19.80;;;4.23;;
24857;SDS011;12935;50.782;6.074;2023-02-15T04:37:32;23.13;;;5.07;;
24857;SDS011;12935;50.782;6.074;2023-02-15T04:39:58;19.53;;;4.43;;
24857;SDS011;12935;50.782;6.074;2023-02-15T04:42:23;24.40;;;4.13;;
24857;SDS011;12935;50.782;6.074;2023-02-15T04:44:50;19.98;;;4.43;;
24857;SDS011;12935;50.782;6.074;2023-02-15T04:47:15;28.87;;;6.37;;
24857;SDS011;12935;50.782;6.074;2023-02-15T04:49:40;19.23;;;4.00;;
24857;SDS011;12935;50.782;6.074;2023-02-15T04:52:06;31.03;;;7.53;;
24857;SDS011;12935;50.782;6.074;2023-02-15T04:54:31;47.97;;;7.43;;
24857;SDS011;12935;50.782;6.074;2023-02-15T04:56:56;27.70;;;4.20;;
24857;SDS011;12935;50.782;6.074;2023-02-15T04:59:22;21.70;;;5.30;;
24857;SDS011;12935;50.782;6.074;2023-02-15T05:01:47;14.63;;;3.30;;
24857;SDS011;12935;50.782;6.074;2023-02-15T05:04:12;21.40;;;4.20;;
24857;SDS011;12935;50.782;6.074;2023-02-15T05:06:37;21.40;;;3.90;;
24857;SDS011;12935;50.782;6.074;2023-02-15T05:09:03;16.17;;;3.30;;
24857;SDS011;12935;50.782;6.074;2023-02-15T05:11:28;17.60;;;3.27;;
24857;SDS011;12935;50.782;6.074;2023-02-15T05:13:53;35.40;;;5.43;;
24857;SDS011;12935;50.782;6.074;2023-02-15T05:16:18;36.87;;;7.57;;
24857;SDS011;12935;50.782;6.074;2023-02-15T05:18:44;15.10;;;2.73;;
24857;SDS011;12935;50.782;6.074;2023-02-15T05:21:09;27.37;;;6.00;;
24857;SDS011;12935;50.782;6.074;2023-02-15T05:23:34;26.20;;;4.00;;
24857;SDS011;12935;50.782;6.074;2023-02-15T05:26:00;19.17;;;3.53;;
24857;SDS011;12935;50.782;6.074;2023-02-15T05:28:44;21.45;;;4.40;;
24857;SDS011;12935;50.782;6.074;2023-02-15T05:31:10;24.87;;;5.60;;
24857;SDS011;12935;50.782;6.074;2023-02-15T05:33:37;21.63;;;3.65;;
24857;SDS011;12935;50.782;6.074;2023-02-15T05:36:03;26.77;;;4.30;;
24857;SDS011;12935;50.782;6.074;2023-02-15T05:38:29;17.50;;;3.70;;
24857;SDS011;12935;50.782;6.074;2023-02-15T05:40:55;17.97;;;3.03;;
24857;SDS011;12935;50.782;6.074;2023-02-15T05:43:20;22.27;;;4.00;;
24857;SDS011;12935;50.782;6.074;2023-02-15T05:45:50;11.27;;;2.13;;
24857;SDS011;12935;50.782;6.074;2023-02-15T05:48:17;21.77;;;4.40;;
24857;SDS011;12935;50.782;6.074;2023-02-15T05:50:43;18.80;;;4.67;;
24857;SDS011;12935;50.782;6.074;2023-02-15T05:53:09;71.70;;;6.93;;
24857;SDS011;12935;50.782;6.074;2023-02-15T05:55:37;16.37;;;2.90;;
24857;SDS011;12935;50.782;6.074;2023-02-15T05:58:03;20.45;;;3.63;;
24857;SDS011;12935;50.782;6.074;2023-02-15T06:00:29;33.00;;;6.40;;
24857;SDS011;12935;50.782;6.074;2023-02-15T06:02:54;19.93;;;4.73;;
24857;SDS011;12935;50.782;6.074;2023-02-15T06:05:19;19.43;;;4.43;;
24857;SDS011;12935;50.782;6.074;2023-02-15T06:07:44;24.40;;;5.37;;
24857;SDS011;12935;50.782;6.074;2023-02-15T06:10:10;14.97;;;2.90;;
24857;SDS011;12935;50.782;6.074;2023-02-15T06:12:36;23.33;;;5.67;;
24857;SDS011;12935;50.782;6.074;2023-02-15T06:15:01;23.93;;;4.40;;
24857;SDS011;12935;50.782;6.074;2023-02-15T06:17:27;29.43;;;5.97;;
24857;SDS011;12935;50.782;6.074;2023-02-15T06:19:52;16.80;;;4.17;;
24857;SDS011;12935;50.782;6.074;2023-02-15T06:22:18;21.53;;;4.80;;
24857;SDS011;12935;50.782;6.074;2023-02-15T06:24:43;22.20;;;4.37;;
24857;SDS011;12935;50.782;6.074;2023-02-15T06:27:11;21.87;;;4.43;;
24857;SDS011;12935;50.782;6.074;2023-02-15T06:29:37;27.27;;;4.25;;
24857;SDS011;12935;50.782;6.074;2023-02-15T06:32:03;25.80;;;4.53;;
24857;SDS011;12935;50.782;6.074;2023-02-15T06:34:28;18.67;;;3.37;;
24857;SDS011;12935;50.782;6.074;2023-02-15T06:36:53;17.47;;;3.30;;
24857;SDS011;12935;50.782;6.074;2023-02-15T06:39:18;23.67;;;4.30;;
24857;SDS011;12935;50.782;6.074;2023-02-15T06:41:44;18.43;;;3.47;;
24857;SDS011;12935;50.782;6.074;2023-02-15T06:44:09;16.07;;;3.70;;
24857;SDS011;12935;50.782;6.074;2023-02-15T06:46:34;23.67;;;4.77;;
24857;SDS011;12935;50.782;6.074;2023-02-15T06:48:59;23.17;;;6.23;;
24857;SDS011;12935;50.782;6.074;2023-02-15T06:51:25;18.03;;;4.07;;
24857;SDS011;12935;50.782;6.074;2023-02-15T06:53:50;21.17;;;4.10;;
24857;SDS011;12935;50.782;6.074;2023-02-15T06:56:16;23.73;;;5.80;;
24857;SDS011;12935;50.782;6.074;2023-02-15T06:58:41;18.77;;;4.63;;
24857;SDS011;12935;50.782;6.074;2023-02-15T07:01:07;25.67;;;4.17;;
24857;SDS011;12935;50.782;6.074;2023-02-15T07:03:33;23.00;;;5.07;;
24857;SDS011;12935;50.782;6.074;2023-02-15T07:06:00;20.45;;;3.78;;
24857;SDS011;12935;50.782;6.074;2023-02-15T07:08:27;19.20;;;3.47;;
24857;SDS011;12935;50.782;6.074;2023-02-15T07:10:54;20.20;;;4.00;;
24857;SDS011;12935;50.782;6.074;2023-02-15T07:13:44;19.58;;;4.03;;
24857;SDS011;12935;50.782;6.074;2023-02-15T07:16:09;16.60;;;2.50;;
24857;SDS011;12935;50.782;6.074;2023-02-15T07:18:35;19.75;;;3.33;;
24857;SDS011;12935;50.782;6.074;2023-02-15T07:21:01;12.67;;;2.27;;
24857;SDS011;12935;50.782;6.074;2023-02-15T07:23:26;18.90;;;3.47;;
24857;SDS011;12935;50.782;6.074;2023-02-15T07:25:58;27.07;;;5.70;;
24857;SDS011;12935;50.782;6.074;2023-02-15T07:28:24;20.75;;;3.97;;
24857;SDS011;12935;50.782;6.074;2023-02-15T07:30:50;17.40;;;4.20;;
24857;SDS011;12935;50.782;6.074;2023-02-15T07:33:16;20.73;;;4.40;;
24857;SDS011;12935;50.782;6.074;2023-02-15T07:35:55;16.45;;;2.80;;
24857;SDS011;12935;50.782;6.074;2023-02-15T07:38:22;20.33;;;3.50;;
24857;SDS011;12935;50.782;6.074;2023-02-15T07:40:49;12.98;;;3.10;;
24857;SDS011;12935;50.782;6.074;2023-02-15T07:43:15;17.33;;;3.63;;
24857;SDS011;12935;50.782;6.074;2023-02-15T07:45:40;23.23;;;5.30;;
24857;SDS011;12935;50.782;6.074;2023-02-15T07:48:06;19.80;;;6.03;;
24857;SDS011;12935;50.782;6.074;2023-02-15T07:50:32;18.20;;;4.25;;
24857;SDS011;12935;50.782;6.074;2023-02-15T07:52:58;24.60;;;5.23;;
24857;SDS011;12935;50.782;6.074;2023-02-15T07:55:23;38.07;;;5.70;;
24857;SDS011;12935;50.782;6.074;2023-02-15T07:57:49;18.10;;;3.07;;
24857;SDS011;12935;50.782;6.074;2023-02-15T08:00:18;15.68;;;3.85;;
24857;SDS011;12935;50.782;6.074;2023-02-15T08:02:53;27.77;;;4.85;;
24857;SDS011;12935;50.782;6.074;2023-02-15T08:05:41;21.85;;;3.42;;
24857;SDS011;12935;50.782;6.074;2023-02-15T08:08:08;26.23;;;4.30;;
24857;SDS011;12935;50.782;6.074;2023-02-15T08:10:56;16.38;;;4.20;;
24857;SDS011;12935;50.782;6.074;2023-02-15T08:13:45;15.63;;;2.90;;
24857;SDS011;12935;50.782;6.074;2023-02-15T08:16:18;20.17;;;3.80;;
24857;SDS011;12935;50.782;6.074;2023-02-15T08:18:44;18.43;;;3.00;;
24857;SDS011;12935;50.782;6.074;2023-02-15T08:21:09;19.70;;;5.93;;
24857;SDS011;12935;50.782;6.074;2023-02-15T08:23:34;21.47;;;4.43;;
24857;SDS011;12935;50.782;6.074;2023-02-15T08:25:59;20.07;;;4.17;;
24857;SDS011;12935;50.782;6.074;2023-02-15T08:28:25;17.00;;;3.47;;
24857;SDS011;12935;50.782;6.074;2023-02-15T08:30:50;19.97;;;4.83;;
24857;SDS011;12935;50.782;6.074;2023-02-15T08:33:15;17.83;;;4.97;;
24857;SDS011;12935;50.782;6.074;2023-02-15T08:35:42;16.92;;;3.80;;
24857;SDS011;12935;50.782;6.074;2023-02-15T08:38:08;26.47;;;4.87;;
24857;SDS011;12935;50.782;6.074;2023-02-15T08:40:33;19.80;;;3.83;;
24857;SDS011;12935;50.782;6.074;2023-02-15T08:42:59;34.92;;;5.43;;
24857;SDS011;12935;50.782;6.074;2023-02-15T08:45:25;16.17;;;4.17;;
24857;SDS011;12935;50.782;6.074;2023-02-15T08:47:50;33.43;;;6.37;;
24857;SDS011;12935;50.782;6.074;2023-02-15T08:50:15;20.13;;;4.30;;
24857;SDS011;12935;50.782;6.074;2023-02-15T08:52:41;24.20;;;5.23;;
24857;SDS011;12935;50.782;6.074;2023-02-15T08:55:06;19.40;;;4.17;;
24857;SDS011;12935;50.782;6.074;2023-02-15T08:57:31;24.80;;;4.50;;
24857;SDS011;12935;50.782;6.074;2023-02-15T08:59:56;18.63;;;3.50;;
24857;SDS011;12935;50.782;6.074;2023-02-15T09:02:22;19.50;;;4.77;;
24857;SDS011;12935;50.782;6.074;2023-02-15T09:04:47;12.73;;;4.07;;
24857;SDS011;12935;50.782;6.074;2023-02-15T09:07:12;18.77;;;3.90;;
24857;SDS011;12935;50.782;6.074;2023-02-15T09:09:37;36.20;;;7.27;;
24857;SDS011;12935;50.782;6.074;2023-02-15T09:12:03;17.60;;;5.73;;
24857;SDS011;12935;50.782;6.074;2023-02-15T09:14:28;14.67;;;4.60;;
24857;SDS011;12935;50.782;6.074;2023-02-15T09:16:53;19.90;;;4.70;;
24857;SDS011;12935;50.782;6.074;2023-02-15T09:19:20;25.63;;;5.47;;
24857;SDS011;12935;50.782;6.074;2023-02-15T09:21:46;20.45;;;4.88;;
24857;SDS011;12935;50.782;6.074;2023-02-15T09:24:13;34.07;;;4.43;;
24857;SDS011;12935;50.782;6.074;2023-02-15T09:26:40;19.65;;;5.05;;
24857;SDS011;12935;50.782;6.074;2023-02-15T09:29:07;18.90;;;5.20;;
24857;SDS011;12935;50.782;6.074;2023-02-15T09:31:37;22.27;;;5.60;;
24857;SDS011;12935;50.782;6.074;2023-02-15T09:34:04;20.42;;;4.57;;
24857;SDS011;12935;50.782;6.074;2023-02-15T09:36:31;16.77;;;4.93;;
24857;SDS011;12935;50.782;6.074;2023-02-15T09:39:12;22.38;;;6.13;;
24857;SDS011;12935;50.782;6.074;2023-02-15T09:52:43;27.70;;;6.38;;
24857;SDS011;12935;50.782;6.074;2023-02-15T09:55:31;41.83;;;8.52;;
24857;SDS011;12935;50.782;6.074;2023-02-15T09:58:22;50.70;;;9.27;;
24857;SDS011;12935;50.782;6.074;2023-02-15T10:08:33;26.47;;;7.20;;
24857;SDS011;12935;50.782;6.074;2023-02-15T10:14:15;16.93;;;6.40;;
24857;SDS011;12935;50.782;6.074;2023-02-15T10:17:14;24.90;;;8.07;;
24857;SDS011;12935;50.782;6.074;2023-02-15T10:19:55;22.88;;;6.95;;
24857;SDS011;12935;50.782;6.074;2023-02-15T10:22:34;28.33;;;7.30;;
24857;SDS011;12935;50.782;6.074;2023-02-15T10:25:08;31.90;;;11.03;;
24857;SDS011;12935;50.782;6.074;2023-02-15T10:27:42;22.02;;;8.23;;
24857;SDS011;12935;50.782;6.074;2023-02-15T10:30:12;33.70;;;8.80;;
24857;SDS011;12935;50.782;6.074;2023-02-15T10:35:35;32.07;;;8.70;;
24857;SDS011;12935;50.782;6.074;2023-02-15T10:44:17;24.47;;;8.60;;
24857;SDS011;12935;50.782;6.074;2023-02-15T11:00:42;19.23;;;7.93;;
24857;SDS011;12935;50.782;6.074;2023-02-15T11:06:12;31.30;;;10.03;;
24857;SDS011;12935;50.782;6.074;2023-02-15T11:09:00;24.80;;;10.60;;
24857;SDS011;12935;50.782;6.074;2023-02-15T11:11:33;41.53;;;14.17;;
24857;SDS011;12935;50.782;6.074;2023-02-15T11:14:09;17.73;;;9.90;;
24857;SDS011;12935;50.782;6.074;2023-02-15T11:16:54;23.07;;;13.77;;
24857;SDS011;12935;50.782;6.074;2023-02-15T11:19:31;40.93;;;13.13;;
24857;SDS011;12935;50.782;6.074;2023-02-15T11:22:00;26.10;;;12.77;;
24857;SDS011;12935;50.782;6.074;2023-02-15T11:24:29;28.70;;;12.33;;
24857;SDS011;12935;50.782;6.074;2023-02-15T11:27:05;28.47;;;11.37;;
24857;SDS011;12935;50.782;6.074;2023-02-15T11:35:03;29.77;;;14.87;;
24857;SDS011;12935;50.782;6.074;2023-02-15T11:40:20;26.57;;;14.23;;
24857;SDS011;12935;50.782;6.074;2023-02-15T11:42:53;23.50;;;12.23;;
24857;SDS011;12935;50.782;6.074;2023-02-15T11:47:54;16.87;;;13.03;;
24857;SDS011;12935;50.782;6.074;2023-02-15T11:50:24;24.37;;;13.40;;
24857;SDS011;12935;50.782;6.074;2023-02-15T11:52:52;26.17;;;14.30;;
24857;SDS011;12935;50.782;6.074;2023-02-15T11:55:23;25.00;;;14.37;;
24857;SDS011;12935;50.782;6.074;2023-02-15T11:58:08;23.43;;;14.00;;
24857;SDS011;12935;50.782;6.074;2023-02-15T12:00:44;34.03;;;15.33;;
24857;SDS011;12935;50.782;6.074;2023-02-15T12:03:14;46.40;;;16.03;;
24857;SDS011;12935;50.782;6.074;2023-02-15T12:05:44;32.03;;;14.80;;
24857;SDS011;12935;50.782;6.074;2023-02-15T12:08:16;39.20;;;15.10;;
24857;SDS011;12935;50.782;6.074;2023-02-15T12:10:50;28.77;;;15.27;;
24857;SDS011;12935;50.782;6.074;2023-02-15T12:13:22;44.07;;;16.23;;
24857;SDS011;12935;50.782;6.074;2023-02-15T12:15:48;24.50;;;15.33;;
24857;SDS011;12935;50.782;6.074;2023-02-15T12:18:18;35.13;;;16.87;;
24857;SDS011;12935;50.782;6.074;2023-02-15T12:20:49;36.33;;;17.60;;
24857;SDS011;12935;50.782;6.074;2023-02-15T12:23:15;27.90;;;16.77;;
24857;SDS011;12935;50.782;6.074;2023-02-15T12:25:50;32.20;;;16.60;;
24857;SDS011;12935;50.782;6.074;2023-02-15T12:33:52;18.73;;;16.10;;
24857;SDS011;12935;50.782;6.074;2023-02-15T12:36:29;28.40;;;17.70;;
24857;SDS011;12935;50.782;6.074;2023-02-15T12:39:05;31.90;;;18.90;;
24857;SDS011;12935;50.782;6.074;2023-02-15T12:41:45;33.53;;;16.80;;
24857;SDS011;12935;50.782;6.074;2023-02-15T12:44:16;38.83;;;19.30;;
24857;SDS011;12935;50.782;6.074;2023-02-15T12:49:42;28.13;;;18.27;;
24857;SDS011;12935;50.782;6.074;2023-02-15T12:54:46;30.73;;;19.27;;
24857;SDS011;12935;50.782;6.074;2023-02-15T12:57:23;24.13;;;18.93;;
24857;SDS011;12935;50.782;6.074;2023-02-15T12:59:53;31.53;;;19.17;;
24857;SDS011;12935;50.782;6.074;2023-02-15T13:02:51;32.97;;;18.57;;
24857;SDS011;12935;50.782;6.074;2023-02-15T13:05:27;34.87;;;19.40;;
24857;SDS011;12935;50.782;6.074;2023-02-15T13:07:57;24.40;;;17.13;;
24857;SDS011;12935;50.782;6.074;2023-02-15T13:10:26;34.20;;;19.40;;
24857;SDS011;12935;50.782;6.074;2023-02-15T13:12:54;30.07;;;19.23;;
24857;SDS011;12935;50.782;6.074;2023-02-15T13:18:01;24.60;;;17.00;;
24857;SDS011;12935;50.782;6.074;2023-02-15T13:20:29;26.77;;;18.17;;
24857;SDS011;12935;50.782;6.074;2023-02-15T13:22:59;48.73;;;21.30;;
24857;SDS011;12935;50.782;6.074;2023-02-15T13:25:31;34.10;;;17.70;;
24857;SDS011;12935;50.782;6.074;2023-02-15T13:28:05;32.10;;;18.57;;
24857;SDS011;12935;50.782;6.074;2023-02-15T13:30:36;32.67;;;19.67;;
24857;SDS011;12935;50.782;6.074;2023-02-15T13:33:26;33.57;;;19.17;;
24857;SDS011;12935;50.782;6.074;2023-02-15T13:41:01;34.53;;;19.47;;
24857;SDS011;12935;50.782;6.074;2023-02-15T13:52:03;38.60;;;17.90;;
24857;SDS011;12935;50.782;6.074;2023-02-15T13:55:00;46.83;;;18.50;;
24857;SDS011;12935;50.782;6.074;2023-02-15T14:05:58;29.73;;;15.50;;
24857;SDS011;12935;50.782;6.074;2023-02-15T14:08:39;42.43;;;16.60;;
24857;SDS011;12935;50.782;6.074;2023-02-15T14:13:42;28.40;;;16.10;;
24857;SDS011;12935;50.782;6.074;2023-02-15T14:21:54;99.97;;;17.30;;
24857;SDS011;12935;50.782;6.074;2023-02-15T14:25:03;37.17;;;16.27;;
24857;SDS011;12935;50.782;6.074;2023-02-15T14:27:59;27.47;;;13.13;;
24857;SDS011;12935;50.782;6.074;2023-02-15T14:30:37;30.03;;;12.80;;
24857;SDS011;12935;50.782;6.074;2023-02-15T14:35:49;33.93;;;14.33;;
24857;SDS011;12935;50.782;6.074;2023-02-15T14:38:17;40.53;;;15.40;;
24857;SDS011;12935;50.782;6.074;2023-02-15T14:40:55;26.97;;;13.83;;
24857;SDS011;12935;50.782;6.074;2023-02-15T14:49:11;27.40;;;14.80;;
24857;SDS011;12935;50.782;6.074;2023-02-15T14:51:53;24.33;;;11.97;;
24857;SDS011;12935;50.782;6.074;2023-02-15T15:00:28;55.33;;;15.73;;
24857;SDS011;12935;50.782;6.074;2023-02-15T15:05:12;28.23;;;12.63;;
24857;SDS011;12935;50.782;6.074;2023-02-15T15:07:41;30.07;;;11.87;;
24857;SDS011;12935;50.782;6.074;2023-02-15T15:12:48;25.00;;;10.97;;
24857;SDS011;12935;50.782;6.074;2023-02-15T15:18:02;39.57;;;11.00;;
24857;SDS011;12935;50.782;6.074;2023-02-15T15:33:50;42.43;;;14.20;;
24857;SDS011;12935;50.782;6.074;2023-02-15T15:41:46;27.83;;;10.90;;
24857;SDS011;12935;50.782;6.074;2023-02-15T15:50:14;19.23;;;11.03;;
24857;SDS011;12935;50.782;6.074;2023-02-15T15:52:45;30.80;;;13.70;;
24857;SDS011;12935;50.782;6.074;2023-02-15T15:55:15;24.07;;;9.97;;
24857;SDS011;12935;50.782;6.074;2023-02-15T15:57:44;26.33;;;11.17;;
24857;SDS011;12935;50.782;6.074;2023-02-15T16:00:34;24.53;;;12.13;;
24857;SDS011;12935;50.782;6.074;2023-02-15T16:05:48;20.47;;;9.07;;
24857;SDS011;12935;50.782;6.074;2023-02-15T16:08:25;40.80;;;12.80;;
24857;SDS011;12935;50.782;6.074;2023-02-15T16:10:55;28.90;;;12.00;;
24857;SDS011;12935;50.782;6.074;2023-02-15T16:13:22;31.97;;;12.00;;
24857;SDS011;12935;50.782;6.074;2023-02-15T16:15:47;36.20;;;12.33;;
24857;SDS011;12935;50.782;6.074;2023-02-15T16:18:17;23.10;;;9.27;;
24857;SDS011;12935;50.782;6.074;2023-02-15T16:20:52;29.97;;;11.17;;
24857;SDS011;12935;50.782;6.074;2023-02-15T16:28:52;27.37;;;8.83;;
24857;SDS011;12935;50.782;6.074;2023-02-15T16:31:19;31.03;;;11.33;;
24857;SDS011;12935;50.782;6.074;2023-02-15T16:33:47;30.83;;;10.07;;
24857;SDS011;12935;50.782;6.074;2023-02-15T16:36:23;20.83;;;8.60;;
24857;SDS011;12935;50.782;6.074;2023-02-15T16:43:52;26.65;;;11.38;;
24857;SDS011;12935;50.782;6.074;2023-02-15T16:46:25;46.87;;;11.70;;
24857;SDS011;12935;50.782;6.074;2023-02-15T16:48:53;25.90;;;9.77;;
24857;SDS011;12935;50.782;6.074;2023-02-15T16:51:24;25.23;;;10.13;;
24857;SDS011;12935;50.782;6.074;2023-02-15T16:53:52;28.87;;;11.07;;
24857;SDS011;12935;50.782;6.074;2023-02-15T16:56:23;21.48;;;7.60;;
24857;SDS011;12935;50.782;6.074;2023-02-15T16:58:51;24.60;;;7.90;;
24857;SDS011;12935;50.782;6.074;2023-02-15T17:01:19;23.33;;;10.32;;
24857;SDS011;12935;50.782;6.074;2023-02-15T17:03:48;27.65;;;9.25;;
24857;SDS011;12935;50.782;6.074;2023-02-15T17:06:19;24.10;;;8.13;;
24857;SDS011;12935;50.782;6.074;2023-02-15T17:08:44;26.33;;;10.55;;
24857;SDS011;12935;50.782;6.074;2023-02-15T17:16:30;25.15;;;8.02;;
24857;SDS011;12935;50.782;6.074;2023-02-15T17:18:58;42.78;;;10.48;;
24857;SDS011;12935;50.782;6.074;2023-02-15T17:21:28;28.23;;;8.67;;
24857;SDS011;12935;50.782;6.074;2023-02-15T17:23:58;26.73;;;8.65;;
24857;SDS011;12935;50.782;6.074;2023-02-15T17:26:29;32.03;;;9.60;;
24857;SDS011;12935;50.782;6.074;2023-02-15T17:29:01;32.28;;;9.73;;
24857;SDS011;12935;50.782;6.074;2023-02-15T17:31:47;36.15;;;8.25;;
24857;SDS011;12935;50.782;6.074;2023-02-15T17:37:11;33.80;;;9.82;;
24857;SDS011;12935;50.782;6.074;2023-02-15T17:39:50;28.77;;;10.20;;
24857;SDS011;12935;50.782;6.074;2023-02-15T17:42:16;26.30;;;7.43;;
24857;SDS011;12935;50.782;6.074;2023-02-15T17:44:41;39.67;;;9.60;;
24857;SDS011;12935;50.782;6.074;2023-02-15T17:47:08;23.70;;;9.03;;
24857;SDS011;12935;50.782;6.074;2023-02-15T17:49:37;35.38;;;10.00;;
24857;SDS011;12935;50.782;6.074;2023-02-15T17:52:02;44.93;;;9.30;;
24857;SDS011;12935;50.782;6.074;2023-02-15T17:54:28;27.85;;;8.38;;
24857;SDS011;12935;50.782;6.074;2023-02-15T17:57:13;25.85;;;8.10;;
24857;SDS011;12935;50.782;6.074;2023-02-15T17:59:39;39.25;;;13.77;;
24857;SDS011;12935;50.782;6.074;2023-02-15T18:02:24;27.67;;;9.07;;
24857;SDS011;12935;50.782;6.074;2023-02-15T18:05:12;27.00;;;8.23;;